createdAt,value
2018-02-27T00:01:00.795Z,11.12
2018-02-27T00:03:32.293Z,10.15
2018-02-27T00:06:04.373Z,10.00
2018-02-27T00:08:36.039Z,10.93
2018-02-27T00:11:07.180Z,11.05
2018-02-27T00:13:38.402Z,11.40
2018-02-27T00:16:10.696Z,10.85
2018-02-27T00:18:41.977Z,12.30
2018-02-27T00:21:13.426Z,9.68
2018-02-27T00:23:44.822Z,10.48
2018-02-27T00:26:17.580Z,13.00
2018-02-27T00:28:49.341Z,11.43
2018-02-27T00:31:20.803Z,10.05
2018-02-27T00:33:52.303Z,9.77
2018-02-27T00:36:23.523Z,10.30
2018-02-27T00:38:55.731Z,9.35
2018-02-27T00:41:27.256Z,10.90
2018-02-27T00:43:58.138Z,10.25
2018-02-27T00:46:29.288Z,10.95
2018-02-27T00:49:00.532Z,10.90
2018-02-27T00:51:31.573Z,9.73
2018-02-27T00:54:02.417Z,8.60
2018-02-27T00:56:36.840Z,10.82
2018-02-27T00:59:07.961Z,11.32
2018-02-27T01:01:39.292Z,9.63
2018-02-27T01:04:10.128Z,10.80
2018-02-27T01:06:43.157Z,12.00
2018-02-27T01:09:14.388Z,11.82
2018-02-27T01:11:45.528Z,10.95
2018-02-27T01:14:17.513Z,12.43
2018-02-27T01:16:48.618Z,8.35
2018-02-27T01:19:19.479Z,12.32
2018-02-27T01:21:50.058Z,8.85
2018-02-27T01:24:20.771Z,10.57
2018-02-27T01:26:52.449Z,11.73
2018-02-27T01:29:23.447Z,9.07
2018-02-27T01:31:54.024Z,8.60
2018-02-27T01:34:25.288Z,8.68
2018-02-27T01:36:56.360Z,7.00
2018-02-27T01:39:27.204Z,7.82
2018-02-27T01:41:58.031Z,8.73
2018-02-27T01:44:28.655Z,10.63
2018-02-27T01:46:59.199Z,11.48
2018-02-27T01:49:30.436Z,9.38
2018-02-27T01:52:00.987Z,8.75
2018-02-27T01:54:32.382Z,9.50
2018-02-27T01:57:03.521Z,10.45
2018-02-27T01:59:33.942Z,11.07
2018-02-27T02:02:04.760Z,10.60
2018-02-27T02:04:36.088Z,9.45
2018-02-27T02:07:06.506Z,9.63
2018-02-27T02:09:36.944Z,14.40
2018-02-27T02:12:07.979Z,9.98
2018-02-27T02:14:38.404Z,12.10
2018-02-27T02:17:09.630Z,8.98
2018-02-27T02:19:41.829Z,9.05
2018-02-27T02:22:12.864Z,10.80
2018-02-27T02:24:43.132Z,12.13
2018-02-27T02:27:15.668Z,11.32
2018-02-27T02:29:46.817Z,8.73
2018-02-27T02:32:18.546Z,9.02
2018-02-27T02:34:50.700Z,8.98
2018-02-27T02:37:21.193Z,8.52
2018-02-27T02:39:51.481Z,9.20
2018-02-27T02:42:26.588Z,9.15
2018-02-27T02:44:56.781Z,10.57
2018-02-27T02:47:27.166Z,12.05
2018-02-27T02:49:58.132Z,10.63
2018-02-27T02:52:28.367Z,9.38
2018-02-27T02:54:58.503Z,8.40
2018-02-27T02:57:29.446Z,21.42
2018-02-27T02:59:59.759Z,11.80
2018-02-27T03:02:30.225Z,9.30
2018-02-27T03:05:00.411Z,9.15
2018-02-27T03:07:31.472Z,9.88
2018-02-27T03:10:01.618Z,6.57
2018-02-27T03:12:32.012Z,6.43
2018-02-27T03:15:02.199Z,6.60
2018-02-27T03:17:32.829Z,4.93
2018-02-27T03:20:03.885Z,6.00
2018-02-27T03:22:34.720Z,5.40
2018-02-27T03:25:04.844Z,5.20
2018-02-27T03:27:35.200Z,7.50
2018-02-27T03:30:05.544Z,5.72
2018-02-27T03:32:36.079Z,6.57
2018-02-27T03:35:06.342Z,5.80
2018-02-27T03:37:36.643Z,6.37
2018-02-27T03:40:07.011Z,6.57
2018-02-27T03:42:37.109Z,4.47
2018-02-27T03:45:06.952Z,6.20
2018-02-27T03:47:37.632Z,4.75
2018-02-27T03:50:08.189Z,5.00
2018-02-27T03:52:38.504Z,5.70
2018-02-27T03:55:08.588Z,3.85
2018-02-27T03:57:38.820Z,4.75
2018-02-27T04:00:09.780Z,5.35
2018-02-27T04:02:39.940Z,6.20
2018-02-27T04:05:10.282Z,7.90
2018-02-27T04:07:40.914Z,5.00
2018-02-27T04:10:11.287Z,3.45
2018-02-27T04:12:41.465Z,3.20
2018-02-27T04:15:11.749Z,5.55
2018-02-27T04:17:41.892Z,4.05
2018-02-27T04:20:12.117Z,6.07
2018-02-27T04:22:42.896Z,5.87
2018-02-27T04:25:13.843Z,5.47
2018-02-27T04:27:44.070Z,3.70
2018-02-27T04:30:14.297Z,5.10
2018-02-27T04:32:44.553Z,4.03
2018-02-27T04:35:14.852Z,5.47
2018-02-27T04:37:45.391Z,6.75
2018-02-27T04:40:15.639Z,4.68
2018-02-27T04:42:45.742Z,3.60
2018-02-27T04:45:15.991Z,4.95
2018-02-27T04:47:46.257Z,4.95
2018-02-27T04:50:16.555Z,6.53
2018-02-27T04:52:47.933Z,3.83
2018-02-27T04:55:18.349Z,3.92
2018-02-27T04:57:48.553Z,5.10
2018-02-27T05:00:20.204Z,4.90
2018-02-27T05:02:51.298Z,3.50
2018-02-27T05:05:21.921Z,7.35
2018-02-27T05:07:53.250Z,6.97
2018-02-27T05:10:23.363Z,5.10
2018-02-27T05:12:53.531Z,4.03
2018-02-27T05:15:23.716Z,5.53
2018-02-27T05:17:54.114Z,2.83
2018-02-27T05:20:25.424Z,4.45
2018-02-27T05:22:55.795Z,4.32
2018-02-27T05:25:26.838Z,5.90
2018-02-27T05:27:57.983Z,5.18
2018-02-27T05:31:53.622Z,4.55
2018-02-27T05:34:25.808Z,6.45
2018-02-27T05:36:56.272Z,3.85
2018-02-27T05:40:30.811Z,5.47
2018-02-27T05:43:01.601Z,6.03
2018-02-27T05:45:33.000Z,6.12
2018-02-27T05:48:04.779Z,8.32
2018-02-27T05:50:36.748Z,6.97
2018-02-27T05:53:09.095Z,5.18
2018-02-27T05:55:40.532Z,5.93
2018-02-27T05:58:12.504Z,6.70
2018-02-27T06:00:44.221Z,5.35
2018-02-27T06:03:15.226Z,5.57
2018-02-27T06:05:46.464Z,5.05
2018-02-27T06:08:21.769Z,5.30
2018-02-27T06:10:54.331Z,6.82
2018-02-27T06:13:25.142Z,5.25
2018-02-27T06:15:56.683Z,7.95
2018-02-27T06:18:29.972Z,6.15
2018-02-27T06:21:02.030Z,6.97
2018-02-27T06:23:48.962Z,6.25
2018-02-27T06:26:21.354Z,5.80
2018-02-27T06:28:53.441Z,9.73
2018-02-27T06:31:24.943Z,6.40
2018-02-27T06:33:55.703Z,6.47
2018-02-27T06:36:27.236Z,9.88
2018-02-27T06:38:59.192Z,8.20
2018-02-27T06:41:41.769Z,6.40
2018-02-27T06:44:26.138Z,10.65
2018-02-27T06:46:59.195Z,7.55
2018-02-27T06:49:30.974Z,6.80
2018-02-27T06:52:02.611Z,8.43
2018-02-27T06:54:34.080Z,7.95
2018-02-27T06:57:05.642Z,8.43
2018-02-27T06:59:38.527Z,6.60
2018-02-27T07:02:11.576Z,8.45
2018-02-27T07:04:43.499Z,8.20
2018-02-27T07:07:15.867Z,6.53
2018-02-27T07:09:48.821Z,6.80
2018-02-27T07:12:20.413Z,5.55
2018-02-27T07:15:06.252Z,7.47
2018-02-27T07:17:44.705Z,8.02
2018-02-27T07:20:18.041Z,6.72
2018-02-27T07:22:51.490Z,7.95
2018-02-27T07:25:23.812Z,9.75
2018-02-27T07:27:56.570Z,6.20
2018-02-27T07:30:28.371Z,13.23
2018-02-27T07:32:59.652Z,9.43
2018-02-27T07:35:32.040Z,10.75
2018-02-27T07:38:05.405Z,9.82
2018-02-27T07:40:38.029Z,9.60
2018-02-27T07:43:09.556Z,11.12
2018-02-27T07:45:41.686Z,13.95
2018-02-27T07:48:13.597Z,9.88
2018-02-27T07:51:21.854Z,11.12
2018-02-27T07:53:54.358Z,10.98
2018-02-27T07:56:26.266Z,10.85
2018-02-27T07:58:57.823Z,11.30
2018-02-27T08:01:29.507Z,11.70
2018-02-27T08:04:02.519Z,15.82
2018-02-27T08:06:34.478Z,15.38
2018-02-27T08:09:06.005Z,11.20
2018-02-27T08:11:40.717Z,10.13
2018-02-27T08:14:13.123Z,11.93
2018-02-27T08:16:45.322Z,14.85
2018-02-27T08:19:17.920Z,13.77
2018-02-27T08:21:49.526Z,11.63
2018-02-27T08:24:23.313Z,10.20
2018-02-27T08:26:54.458Z,9.63
2018-02-27T08:29:26.979Z,7.60
2018-02-27T08:32:00.013Z,8.68
2018-02-27T08:34:30.906Z,9.85
2018-02-27T08:37:04.180Z,11.25
2018-02-27T08:39:36.004Z,11.68
2018-02-27T08:42:07.506Z,9.73
2018-02-27T08:44:55.082Z,8.57
2018-02-27T08:47:28.113Z,6.62
2018-02-27T08:50:01.041Z,8.88
2018-02-27T08:52:32.774Z,7.65
2018-02-27T08:55:04.795Z,6.60
2018-02-27T08:57:37.730Z,5.10
2018-02-27T09:00:09.826Z,9.52
2018-02-27T09:02:42.786Z,9.13
2018-02-27T09:05:14.361Z,9.55
2018-02-27T09:07:46.147Z,9.07
2018-02-27T09:10:17.327Z,5.65
2018-02-27T09:12:49.207Z,7.32
2018-02-27T09:15:21.403Z,8.63
2018-02-27T09:17:52.767Z,6.10
2018-02-27T09:20:25.296Z,6.47
2018-02-27T09:22:58.549Z,7.28
2018-02-27T09:25:31.319Z,6.47
2018-02-27T09:28:06.831Z,6.32
2018-02-27T09:30:38.380Z,8.90
2018-02-27T09:33:09.608Z,5.85
2018-02-27T09:35:40.659Z,6.53
2018-02-27T09:38:11.889Z,5.30
2018-02-27T09:40:43.869Z,6.68
2018-02-27T09:43:15.381Z,8.20
2018-02-27T09:45:48.314Z,8.52
2018-02-27T09:48:19.506Z,8.38
2018-02-27T09:50:51.290Z,8.70
2018-02-27T09:53:24.850Z,6.60
2018-02-27T09:55:56.611Z,6.18
2018-02-27T09:58:29.625Z,8.77
2018-02-27T10:01:05.205Z,6.68
2018-02-27T10:04:02.881Z,7.78
2018-02-27T10:06:38.775Z,5.90
2018-02-27T10:09:10.109Z,5.37
2018-02-27T10:11:41.192Z,8.10
2018-02-27T10:14:20.083Z,8.50
2018-02-27T10:16:53.132Z,5.35
2018-02-27T10:19:26.470Z,8.30
2018-02-27T10:21:59.055Z,6.05
2018-02-27T10:24:30.113Z,4.37
2018-02-27T10:27:03.225Z,5.40
2018-02-27T10:29:36.352Z,6.70
2018-02-27T10:32:08.914Z,4.68
2018-02-27T10:34:40.514Z,4.50
2018-02-27T10:37:13.077Z,5.62
2018-02-27T10:39:45.875Z,8.95
2018-02-27T10:42:17.697Z,7.50
2018-02-27T10:44:48.808Z,4.97
2018-02-27T10:47:22.630Z,5.72
2018-02-27T10:49:53.597Z,5.65
2018-02-27T10:52:24.980Z,4.07
2018-02-27T10:54:57.833Z,4.22
2018-02-27T10:57:31.901Z,8.32
2018-02-27T11:00:08.262Z,5.82
2018-02-27T11:02:40.343Z,4.35
2018-02-27T11:05:15.197Z,2.90
2018-02-27T11:11:11.888Z,2.67
2018-02-27T11:13:45.618Z,3.03
2018-02-27T11:16:23.095Z,4.47
2018-02-27T11:21:46.705Z,2.55
2018-02-27T11:24:30.414Z,2.70
2018-02-27T11:27:03.832Z,5.70
2018-02-27T11:29:38.475Z,2.80
2018-02-27T11:32:15.711Z,4.82
2018-02-27T11:37:39.289Z,3.08
2018-02-27T11:40:14.520Z,5.35
2018-02-27T11:42:47.696Z,4.07
2018-02-27T11:45:23.278Z,3.70
2018-02-27T11:48:00.777Z,4.37
2018-02-27T11:50:38.347Z,6.45
2018-02-27T11:53:11.755Z,4.85
2018-02-27T11:56:22.435Z,2.33
2018-02-27T12:11:32.652Z,2.45
2018-02-27T12:14:07.279Z,1.80
2018-02-27T12:16:42.804Z,4.00
2018-02-27T12:19:13.893Z,8.18
2018-02-27T12:21:46.116Z,3.00
2018-02-27T12:24:20.171Z,2.50
2018-02-27T12:26:51.200Z,4.07
2018-02-27T12:29:22.400Z,5.82
2018-02-27T12:31:53.460Z,2.85
2018-02-27T12:34:26.051Z,9.20
2018-02-27T12:37:03.709Z,1.92
2018-02-27T12:39:34.912Z,5.03
2018-02-27T12:42:09.335Z,5.90
2018-02-27T12:44:42.273Z,3.80
2018-02-27T12:47:13.479Z,2.08
2018-02-27T12:49:46.174Z,3.75
2018-02-27T12:52:18.377Z,2.35
2018-02-27T12:54:51.283Z,7.55
2018-02-27T12:57:23.554Z,2.37
2018-02-27T12:59:54.472Z,2.37
2018-02-27T13:02:26.115Z,3.15
2018-02-27T13:04:58.019Z,2.08
2018-02-27T13:07:42.734Z,2.75
2018-02-27T13:10:13.603Z,1.48
2018-02-27T13:12:44.933Z,4.15
2018-02-27T13:15:16.597Z,1.67
2018-02-27T13:17:49.693Z,4.62
2018-02-27T13:20:21.235Z,3.62
2018-02-27T13:22:56.648Z,2.53
2018-02-27T13:25:28.296Z,3.53
2018-02-27T13:28:00.263Z,2.42
2018-02-27T13:30:37.376Z,3.47
2018-02-27T13:33:08.434Z,3.03
2018-02-27T13:35:39.677Z,4.22
2018-02-27T13:38:14.784Z,2.12
2018-02-27T13:40:47.176Z,6.97
2018-02-27T13:43:18.089Z,5.45
2018-02-27T13:45:54.563Z,1.20
2018-02-27T13:48:25.805Z,1.87
2018-02-27T13:51:00.351Z,2.33
2018-02-27T13:53:44.126Z,4.95
2018-02-27T13:59:11.109Z,5.05
2018-02-27T14:05:16.903Z,1.98
2018-02-27T14:07:49.583Z,2.60
2018-02-27T14:10:22.179Z,2.50
2018-02-27T14:12:53.336Z,5.05
2018-02-27T14:15:24.168Z,3.90
2018-02-27T14:18:05.725Z,4.10
2018-02-27T14:20:39.002Z,2.80
2018-02-27T14:23:11.061Z,2.47
2018-02-27T14:25:47.090Z,1.85
2018-02-27T14:28:23.441Z,2.30
2018-02-27T14:30:54.995Z,3.78
2018-02-27T14:33:26.258Z,1.35
2018-02-27T14:35:58.058Z,3.17
2018-02-27T14:38:29.678Z,4.43
2018-02-27T14:41:04.165Z,1.73
2018-02-27T14:43:35.305Z,9.48
2018-02-27T14:46:07.873Z,2.03
2018-02-27T14:48:39.114Z,4.53
2018-02-27T14:51:14.828Z,1.90
2018-02-27T14:53:46.632Z,3.37
2018-02-27T14:56:17.912Z,1.83
2018-02-27T14:58:48.945Z,1.92
2018-02-27T15:01:20.464Z,2.75
2018-02-27T15:03:52.637Z,2.58
2018-02-27T15:06:24.074Z,1.77
2018-02-27T15:09:00.818Z,1.80
2018-02-27T15:11:32.505Z,3.03
2018-02-27T15:14:06.017Z,2.05
2018-02-27T15:16:39.148Z,2.75
2018-02-27T15:19:10.346Z,4.10
2018-02-27T15:21:42.584Z,2.10
2018-02-27T15:24:13.788Z,2.10
2018-02-27T15:26:47.998Z,3.50
2018-02-27T15:29:20.687Z,2.22
2018-02-27T15:31:52.365Z,2.72
2018-02-27T15:34:23.609Z,2.20
2018-02-27T15:36:54.650Z,7.05
2018-02-27T15:39:26.003Z,2.17
2018-02-27T15:41:57.656Z,1.73
2018-02-27T15:44:29.153Z,3.25
2018-02-27T15:47:04.028Z,3.42
2018-02-27T15:49:38.428Z,1.83
2018-02-27T15:52:10.143Z,3.33
2018-02-27T15:54:41.876Z,2.17
2018-02-27T15:57:13.685Z,2.47
2018-02-27T15:59:44.647Z,2.28
2018-02-27T16:02:15.712Z,3.80
2018-02-27T16:04:46.951Z,2.78
2018-02-27T16:07:18.519Z,1.73
2018-02-27T16:09:49.345Z,1.98
2018-02-27T16:12:20.608Z,1.92
2018-02-27T16:14:52.431Z,5.00
2018-02-27T16:17:23.937Z,2.87
2018-02-27T16:19:56.108Z,3.95
2018-02-27T16:22:27.840Z,2.53
2018-02-27T16:25:14.393Z,2.65
2018-02-27T16:27:45.377Z,2.60
2018-02-27T16:30:16.598Z,1.52
2018-02-27T16:32:48.238Z,4.07
2018-02-27T16:35:20.075Z,2.90
2018-02-27T16:37:51.587Z,1.83
2018-02-27T16:40:22.448Z,3.80
2018-02-27T16:42:54.010Z,1.70
2018-02-27T16:45:26.665Z,2.35
2018-02-27T16:47:58.707Z,5.87
2018-02-27T16:50:30.284Z,8.60
2018-02-27T16:53:07.110Z,1.83
2018-02-27T16:55:38.285Z,2.05
2018-02-27T16:58:14.999Z,2.17
2018-02-27T17:00:47.751Z,4.45
2018-02-27T17:03:21.220Z,3.97
2018-02-27T17:05:54.038Z,4.35
2018-02-27T17:08:24.994Z,2.45
2018-02-27T17:10:56.068Z,2.95
2018-02-27T17:13:27.187Z,6.45
2018-02-27T17:15:58.854Z,4.05
2018-02-27T17:18:33.346Z,3.95
2018-02-27T17:21:10.432Z,1.70
2018-02-27T17:23:43.407Z,2.10
2018-02-27T17:26:14.732Z,2.53
2018-02-27T17:28:45.870Z,5.05
2018-02-27T17:31:17.296Z,12.98
2018-02-27T17:33:48.370Z,7.43
2018-02-27T17:36:19.184Z,4.43
2018-02-27T17:38:50.748Z,3.25
2018-02-27T17:41:21.384Z,2.62
2018-02-27T17:43:53.171Z,2.20
2018-02-27T17:46:25.778Z,3.25
2018-02-27T17:48:57.505Z,2.47
2018-02-27T17:51:28.439Z,2.40
2018-02-27T17:53:59.529Z,3.08
2018-02-27T17:56:31.356Z,3.72
2018-02-27T17:59:02.299Z,2.62
2018-02-27T18:01:34.581Z,3.05
2018-02-27T18:04:08.125Z,4.57
2018-02-27T18:06:39.130Z,5.10
2018-02-27T18:09:10.861Z,2.60
2018-02-27T18:11:42.634Z,4.87
2018-02-27T18:14:15.122Z,3.87
2018-02-27T18:16:45.853Z,3.10
2018-02-27T18:19:16.728Z,4.68
2018-02-27T18:21:49.399Z,4.10
2018-02-27T18:24:21.594Z,5.72
2018-02-27T18:26:53.974Z,8.48
2018-02-27T18:29:25.710Z,8.43
2018-02-27T18:31:56.632Z,17.50
2018-02-27T18:34:31.294Z,11.12
2018-02-27T18:37:03.512Z,4.75
2018-02-27T18:39:35.299Z,8.63
2018-02-27T18:42:05.412Z,10.18
2018-02-27T18:44:36.733Z,9.48
2018-02-27T18:47:09.053Z,7.90
2018-02-27T18:49:40.730Z,5.22
2018-02-27T18:52:12.546Z,9.90
2018-02-27T18:54:43.365Z,18.92
2018-02-27T18:57:14.129Z,8.95
2018-02-27T18:59:45.015Z,5.12
2018-02-27T19:05:04.673Z,19.60
2018-02-27T19:07:35.789Z,20.50
2018-02-27T19:10:06.478Z,9.07
2018-02-27T19:12:39.353Z,10.68
2018-02-27T19:15:11.592Z,8.30
2018-02-27T19:17:42.370Z,6.60
2018-02-27T19:20:13.146Z,8.77
2018-02-27T19:22:43.967Z,7.80
2018-02-27T19:25:15.556Z,6.18
2018-02-27T19:27:46.461Z,9.90
2018-02-27T19:30:17.622Z,12.25
2018-02-27T19:32:49.127Z,8.07
2018-02-27T19:35:19.770Z,17.62
2018-02-27T19:37:51.647Z,6.35
2018-02-27T19:40:24.651Z,15.00
2018-02-27T19:42:55.519Z,5.62
2018-02-27T19:45:26.319Z,6.18
2018-02-27T19:47:57.565Z,12.75
2018-02-27T19:50:28.368Z,7.60
2018-02-27T19:53:00.066Z,5.97
2018-02-27T19:55:31.617Z,12.07
2018-02-27T19:58:04.952Z,7.72
2018-02-27T20:00:36.259Z,7.60
2018-02-27T20:03:08.616Z,12.68
2018-02-27T20:05:40.352Z,12.15
2018-02-27T20:08:12.202Z,31.83
2018-02-27T20:10:46.440Z,11.48
2018-02-27T20:13:18.876Z,12.25
2018-02-27T20:15:51.756Z,10.63
2018-02-27T20:18:26.824Z,11.32
2018-02-27T20:21:02.316Z,17.25
2018-02-27T20:23:38.874Z,12.20
2018-02-27T20:26:10.168Z,11.73
2018-02-27T20:28:44.981Z,13.10
2018-02-27T20:31:16.219Z,14.10
2018-02-27T20:33:47.166Z,12.32
2018-02-27T20:36:18.999Z,10.05
2018-02-27T20:38:55.985Z,13.40
2018-02-27T20:41:28.054Z,18.70
2018-02-27T20:44:00.696Z,11.85
2018-02-27T20:46:32.612Z,11.63
2018-02-27T20:49:05.693Z,15.77
2018-02-27T20:51:36.558Z,15.85
2018-02-27T20:54:07.434Z,15.20
2018-02-27T20:56:38.335Z,14.48
2018-02-27T20:59:10.534Z,14.80
2018-02-27T21:01:55.453Z,12.30
2018-02-27T21:04:27.633Z,14.73
2018-02-27T21:06:59.984Z,14.23
2018-02-27T21:09:31.632Z,16.20
2018-02-27T21:12:02.436Z,13.62
2018-02-27T21:14:33.463Z,11.82
2018-02-27T21:17:05.123Z,14.75
2018-02-27T21:19:37.634Z,12.70
2018-02-27T21:22:08.485Z,10.18
2018-02-27T21:24:39.617Z,10.32
2018-02-27T21:27:10.628Z,12.02
2018-02-27T21:29:42.263Z,13.07
2018-02-27T21:32:17.989Z,12.60
2018-02-27T21:34:48.642Z,17.35
2018-02-27T21:37:19.860Z,13.57
2018-02-27T21:39:51.373Z,14.40
2018-02-27T21:42:22.941Z,11.10
2018-02-27T21:44:54.212Z,14.43
2018-02-27T21:47:24.919Z,12.77
2018-02-27T21:49:55.758Z,19.48
2018-02-27T21:52:27.203Z,14.87
2018-02-27T21:54:59.278Z,15.25
2018-02-27T21:57:30.691Z,16.92
2018-02-27T22:00:02.628Z,15.38
2018-02-27T22:02:34.176Z,12.35
2018-02-27T22:05:06.921Z,14.65
2018-02-27T22:07:37.960Z,20.05
2018-02-27T22:10:09.416Z,14.98
2018-02-27T22:12:40.314Z,18.33
2018-02-27T22:15:12.226Z,15.73
2018-02-27T22:17:52.330Z,14.15
2018-02-27T22:20:28.349Z,12.50
2018-02-27T22:23:08.253Z,15.68
2018-02-27T22:25:42.242Z,15.30
2018-02-27T22:28:18.087Z,17.80
2018-02-27T22:30:54.588Z,14.15
2018-02-27T22:33:26.062Z,14.10
2018-02-27T22:35:57.071Z,15.93
2018-02-27T22:38:28.407Z,14.75
2018-02-27T22:41:00.923Z,14.07
2018-02-27T22:43:33.218Z,12.65
2018-02-27T22:46:04.392Z,17.52
2018-02-27T22:48:36.960Z,14.77
2018-02-27T22:51:07.988Z,12.05
2018-02-27T22:53:39.311Z,19.92
2018-02-27T22:56:11.527Z,14.73
2018-02-27T22:58:43.414Z,13.10
2018-02-27T23:01:14.572Z,14.18
2018-02-27T23:03:46.860Z,13.30
2018-02-27T23:06:18.915Z,12.75
2018-02-27T23:08:50.244Z,12.75
2018-02-27T23:11:21.405Z,14.02
2018-02-27T23:13:52.915Z,13.93
2018-02-27T23:16:24.998Z,14.40
2018-02-27T23:18:56.116Z,12.82
2018-02-27T23:21:28.183Z,11.73
2018-02-27T23:24:26.491Z,14.55
2018-02-27T23:27:03.656Z,13.32
2018-02-27T23:29:36.525Z,14.00
2018-02-27T23:32:11.702Z,13.32
2018-02-27T23:35:26.679Z,16.90
2018-02-27T23:37:58.474Z,14.87
2018-02-27T23:40:29.482Z,14.30
2018-02-27T23:43:01.141Z,13.15
2018-02-27T23:45:32.623Z,15.73
2018-02-27T23:48:04.255Z,13.62
2018-02-27T23:51:54.561Z,15.27
2018-02-27T23:54:25.819Z,17.08
2018-02-27T23:56:57.086Z,14.07
2018-02-27T23:59:30.133Z,14.35
